Time;durP1;ratioP1;P1;durP2;ratioP2;P2;SDS_P1;SDS_P2;PMS_P1;PMS_P2;Temp;Humidity;BMP_temperature;BMP_pressure;BME280_temperature;BME280_humidity;BME280_pressure;Samples;Min_cycle;Max_cycle;Signal;HPM_P1;HPM_P2
2022/09/18 00:00:39;;;;;;;5.03;2.85;;;;;;;20.43;52.33;101651.28;5109243;28;20485;-76
2022/09/18 00:03:04;;;;;;;4.00;2.40;;;;;;;20.43;52.44;101646.03;5076440;28;20094;-76
2022/09/18 00:05:30;;;;;;;6.43;2.70;;;;;;;20.42;52.33;101647.75;5091636;28;20520;-74
2022/09/18 00:07:56;;;;;;;4.72;2.65;;;;;;;20.44;51.96;101639.91;5092828;28;20055;-74
2022/09/18 00:10:21;;;;;;;5.75;2.50;;;;;;;20.44;52.25;101639.91;5109536;28;20516;-75
2022/09/18 00:12:46;;;;;;;4.82;2.38;;;;;;;20.44;52.09;101640.78;5092481;28;20044;-75
2022/09/18 00:15:12;;;;;;;6.55;2.25;;;;;;;20.43;52.12;101635.59;5081705;28;20102;-73
2022/09/18 00:17:37;;;;;;;5.95;2.58;;;;;;;20.43;52.15;101644.28;5056788;28;20055;-75
2022/09/18 00:20:03;;;;;;;4.53;2.50;;;;;;;20.44;52.09;101639.91;5092863;28;20130;-76
2022/09/18 00:22:29;;;;;;;6.30;2.22;;;;;;;20.44;52.02;101648.63;5107900;28;20052;-74
2022/09/18 00:24:54;;;;;;;6.63;2.47;;;;;;;20.44;51.87;101632.94;5092822;28;20035;-74
2022/09/18 00:27:20;;;;;;;4.55;2.30;;;;;;;20.44;51.96;101630.31;5091485;28;20056;-75
2022/09/18 00:29:45;;;;;;;4.75;2.38;;;;;;;20.44;51.94;101622.47;5110065;28;20040;-76
2022/09/18 00:32:10;;;;;;;6.20;2.22;;;;;;;20.43;52.14;101626.00;5092816;28;20055;-76
2022/09/18 00:34:37;;;;;;;6.32;2.33;;;;;;;20.43;51.95;101636.44;5090350;28;20067;-76
2022/09/18 00:37:03;;;;;;;5.82;2.33;;;;;;;20.44;51.86;101651.22;5075682;28;20129;-76
2022/09/18 00:39:28;;;;;;;4.10;2.10;;;;;;;20.44;51.97;101646.00;5090159;28;20051;-76
2022/09/18 00:41:53;;;;;;;5.47;2.25;;;;;;;20.45;52.03;101652.13;5092301;28;20079;-77
2022/09/18 00:44:35;;;;;;;4.68;2.00;;;;;;;20.44;51.84;101661.69;5091361;28;20075;-75
2022/09/18 00:47:04;;;;;;;5.38;2.08;;;;;;;20.44;52.07;101646.00;5091393;28;20075;-74
2022/09/18 00:49:29;;;;;;;4.55;2.10;;;;;;;20.43;51.97;101649.53;5108558;28;20513;-75
2022/09/18 00:51:57;;;;;;;3.95;2.20;;;;;;;20.44;52.00;101650.38;5092198;28;20158;-75
2022/09/18 00:54:38;;;;;;;3.22;1.95;;;;;;;20.43;51.86;101649.53;5090836;28;20048;-75
2022/09/18 00:57:08;;;;;;;3.70;2.00;;;;;;;20.44;52.00;101647.75;5092102;28;20052;-76
2022/09/18 00:59:35;;;;;;;5.05;2.22;;;;;;;20.44;51.77;101648.63;5108205;28;20131;-75
2022/09/18 01:02:01;;;;;;;4.00;1.95;;;;;;;20.43;51.80;101646.91;5092045;28;20055;-75
2022/09/18 01:04:28;;;;;;;3.35;2.00;;;;;;;20.44;51.83;101651.22;5089811;28;20048;-77
2022/09/18 01:07:01;;;;;;;3.60;1.83;;;;;;;20.44;51.87;101645.16;5110260;28;20052;-75
2022/09/18 01:09:44;;;;;;;4.55;2.17;;;;;;;20.44;52.14;101653.00;5089737;28;20043;-74
2022/09/18 01:14:50;;;;;;;5.63;1.95;;;;;;;20.44;51.80;101661.69;5091192;28;20965;-75
2022/09/18 01:17:25;;;;;;;4.22;1.90;;;;;;;20.44;51.87;101661.69;5091396;28;20051;-76
2022/09/18 01:20:09;;;;;;;4.72;2.05;;;;;;;20.45;51.79;101654.75;5108205;28;20047;-76
2022/09/18 01:22:59;;;;;;;3.85;1.70;;;;;;;20.44;51.82;101655.59;5089345;28;21120;-73
2022/09/18 01:25:42;;;;;;;4.25;1.92;;;;;;;20.44;51.73;101660.84;5089118;28;20082;-74
2022/09/18 01:30:43;;;;;;;4.63;1.95;;;;;;;20.44;51.59;101646.00;5091127;28;20955;-77
2022/09/18 01:35:47;;;;;;;3.15;1.60;;;;;;;20.44;51.61;101646.00;5090908;28;20651;-78
2022/09/18 01:40:50;;;;;;;3.65;1.52;;;;;;;20.43;51.78;101628.59;5107801;28;20237;-77
2022/09/18 01:43:15;;;;;;;2.35;1.50;;;;;;;20.43;51.66;101620.75;5091189;28;20047;-76
2022/09/18 01:45:45;;;;;;;3.45;1.60;;;;;;;20.44;51.63;101621.63;5087690;28;20697;-75
2022/09/18 01:50:51;;;;;;;2.85;1.40;;;;;;;20.44;51.65;101630.31;5087637;28;20066;-74
2022/09/18 01:53:23;;;;;;;4.55;1.60;;;;;;;20.44;51.49;101627.72;5070306;28;20052;-75
2022/09/18 01:58:40;;;;;;;3.45;1.52;;;;;;;20.43;51.52;101628.59;5087552;28;20067;-76
2022/09/18 02:01:13;;;;;;;3.45;1.60;;;;;;;20.44;51.56;101624.22;5071430;28;20052;-76
2022/09/18 02:03:44;;;;;;;3.03;1.55;;;;;;;20.42;51.51;101619.00;5088268;28;20048;-75
2022/09/18 02:08:50;;;;;;;2.67;1.55;;;;;;;20.43;51.57;101614.69;5107821;28;20048;-74
2022/09/18 02:11:17;;;;;;;2.42;1.40;;;;;;;20.43;51.42;101609.44;5109406;28;20047;-75
2022/09/18 02:13:45;;;;;;;3.63;1.40;;;;;;;20.43;51.47;101612.06;5089433;28;20060;-75
2022/09/18 02:18:45;;;;;;;2.67;1.20;;;;;;;20.43;51.67;101609.44;5107067;28;20139;-76
2022/09/18 02:23:41;;;;;;;2.95;1.30;;;;;;;20.43;51.51;101597.22;5107763;28;20073;-77
2022/09/18 02:27:56;;;;;;;3.22;1.27;;;;;;;20.44;51.46;101585.03;5127946;27;20418;-76
2022/09/18 02:30:22;;;;;;;3.90;1.33;;;;;;;20.42;51.44;101595.47;5114421;28;20393;-76
2022/09/18 02:32:53;;;;;;;2.65;1.33;;;;;;;20.44;51.51;101614.63;5115441;28;20051;-75
2022/09/18 02:35:19;;;;;;;2.90;1.23;;;;;;;20.44;51.34;101611.16;5127619;28;20047;-75
2022/09/18 02:38:03;;;;;;;3.03;1.42;;;;;;;20.44;51.26;101616.38;5097943;28;20052;-75
2022/09/18 02:40:33;;;;;;;3.00;1.50;;;;;;;20.43;51.55;101605.06;5113383;28;20091;-76
2022/09/18 02:43:15;;;;;;;2.33;1.25;;;;;;;20.43;51.32;101604.22;5113688;28;20044;-75
2022/09/18 02:46:06;;;;;;;2.72;1.05;;;;;;;20.43;51.36;101609.44;5124099;28;20080;-76
2022/09/18 02:48:37;;;;;;;2.50;1.30;;;;;;;20.42;51.28;101599.84;5113356;28;20066;-77
2022/09/18 02:51:17;;;;;;;2.20;1.20;;;;;;;20.42;51.44;101613.78;5127761;28;20040;-76
2022/09/18 02:54:04;;;;;;;3.03;1.30;;;;;;;20.41;51.26;101601.59;5113600;28;20113;-75
2022/09/18 02:56:51;;;;;;;2.25;1.20;;;;;;;20.43;51.41;101599.84;5125607;28;20096;-74
2022/09/18 03:01:49;;;;;;;2.60;1.30;;;;;;;20.43;51.46;101596.38;5104462;28;20044;-75
2022/09/18 03:04:20;;;;;;;2.63;1.20;;;;;;;20.43;51.33;101592.00;5098955;27;20043;-76
2022/09/18 03:06:46;;;;;;;2.50;1.20;;;;;;;20.42;51.25;101589.41;5115037;28;20739;-74
2022/09/18 03:09:12;;;;;;;2.58;1.10;;;;;;;20.42;51.42;101582.41;5113954;28;20052;-76
2022/09/18 03:11:37;;;;;;;2.22;1.10;;;;;;;20.42;51.28;101586.78;5096378;28;20547;-73
2022/09/18 03:14:03;;;;;;;4.15;1.40;;;;;;;20.41;51.51;101582.44;5113458;28;20047;-75
2022/09/18 03:16:28;;;;;;;2.90;0.95;;;;;;;20.41;51.27;101585.91;5122889;28;20447;-74
2022/09/18 03:18:54;;;;;;;2.00;1.20;;;;;;;20.41;51.19;101590.28;5117555;28;20134;-76
2022/09/18 03:21:19;;;;;;;2.85;1.30;;;;;;;20.41;51.35;101583.31;5099077;27;20099;-75
2022/09/18 03:23:45;;;;;;;3.10;1.13;;;;;;;20.42;51.30;101584.16;5115467;27;20055;-76
2022/09/18 03:26:10;;;;;;;2.13;1.00;;;;;;;20.41;51.46;101583.31;5096183;28;20543;-76
2022/09/18 03:28:36;;;;;;;3.03;1.20;;;;;;;20.41;51.27;101585.91;5104209;28;20052;-75
2022/09/18 03:31:01;;;;;;;1.95;0.90;;;;;;;20.41;51.23;101583.31;5093291;28;20085;-75
2022/09/18 03:33:26;;;;;;;2.95;1.27;;;;;;;20.41;51.36;101580.69;5115741;28;20051;-76
2022/09/18 03:35:52;;;;;;;2.88;1.25;;;;;;;20.41;51.13;101582.44;5094775;28;20536;-75
2022/09/18 03:38:17;;;;;;;1.60;1.00;;;;;;;20.41;50.99;101574.59;5088262;28;20044;-75
2022/09/18 03:40:44;;;;;;;2.38;0.90;;;;;;;20.41;51.29;101577.22;5080688;28;20048;-75
2022/09/18 03:43:10;;;;;;;3.50;0.90;;;;;;;20.41;51.24;101578.06;5097682;28;20070;-75
2022/09/18 03:45:35;;;;;;;2.70;1.20;;;;;;;20.41;51.11;101578.06;5100670;28;20489;-77
2022/09/18 03:48:01;;;;;;;1.85;0.90;;;;;;;20.42;51.41;101581.56;5065584;28;20135;-76
2022/09/18 03:50:26;;;;;;;3.03;1.17;;;;;;;20.41;51.12;101583.31;5082322;28;20052;-77
2022/09/18 03:52:52;;;;;;;2.22;1.10;;;;;;;20.40;51.23;101586.78;5064514;28;20056;-76
2022/09/18 03:55:17;;;;;;;2.55;1.13;;;;;;;20.41;50.62;101585.06;5099483;28;20108;-76
2022/09/18 03:57:44;;;;;;;1.92;0.90;;;;;;;20.41;51.22;101595.50;5100073;28;20051;-76
2022/09/18 04:00:11;;;;;;;1.95;1.10;;;;;;;20.40;51.21;101594.63;5099279;28;20076;-77
2022/09/18 04:02:36;;;;;;;2.45;1.10;;;;;;;20.40;51.13;101612.06;5081786;28;20044;-75
2022/09/18 04:05:02;;;;;;;1.65;0.90;;;;;;;20.39;51.10;101611.22;5082255;28;20398;-76
2022/09/18 04:07:28;;;;;;;2.15;0.90;;;;;;;20.39;51.17;101611.22;5097608;28;20044;-76
2022/09/18 04:09:53;;;;;;;2.22;0.98;;;;;;;20.39;51.17;101603.38;5094059;28;20048;-75
2022/09/18 04:12:19;;;;;;;2.50;1.00;;;;;;;20.40;51.16;101594.63;5068867;28;20074;-76
2022/09/18 04:14:44;;;;;;;2.25;0.98;;;;;;;20.40;51.13;101588.53;5100376;28;20085;-76
2022/09/18 04:17:10;;;;;;;1.65;0.95;;;;;;;20.40;51.24;101584.16;5098668;28;20028;-75
2022/09/18 04:19:35;;;;;;;2.38;1.05;;;;;;;20.40;51.06;101581.56;5098109;28;20048;-74
2022/09/18 04:22:02;;;;;;;3.72;1.00;;;;;;;20.40;51.17;101571.09;5081736;28;20050;-75
2022/09/18 04:24:27;;;;;;;2.35;1.00;;;;;;;20.39;51.10;101573.75;5081573;28;20052;-76
2022/09/18 04:26:53;;;;;;;1.42;0.70;;;;;;;20.39;50.80;101569.38;5080953;28;20478;-76
2022/09/18 04:29:18;;;;;;;2.67;1.02;;;;;;;20.38;51.06;101570.25;5081550;28;20051;-75
2022/09/18 04:31:44;;;;;;;1.40;0.80;;;;;;;20.37;50.88;101562.44;5079794;28;20052;-76
2022/09/18 04:34:09;;;;;;;1.63;0.90;;;;;;;20.37;51.19;101565.06;5062857;28;20067;-74
2022/09/18 04:36:35;;;;;;;2.08;0.90;;;;;;;20.37;51.24;101562.44;5065735;28;20138;-74
2022/09/18 04:39:00;;;;;;;2.55;1.08;;;;;;;20.37;51.24;101563.31;5098913;28;20052;-76
2022/09/18 04:41:25;;;;;;;2.25;1.00;;;;;;;20.35;51.08;101555.47;5081528;28;20071;-77
2022/09/18 04:43:51;;;;;;;2.75;0.95;;;;;;;20.37;51.11;101559.81;5080129;28;20056;-75
2022/09/18 04:46:16;;;;;;;2.08;1.02;;;;;;;20.37;51.10;101562.44;5098210;28;20076;-75
2022/09/18 04:48:46;;;;;;;2.33;0.80;;;;;;;20.39;51.00;101563.28;5065951;28;20031;-75
2022/09/18 04:51:12;;;;;;;1.70;0.77;;;;;;;20.38;50.95;101557.16;5110696;28;20057;-76
2022/09/18 04:53:39;;;;;;;2.30;1.00;;;;;;;20.37;50.89;101552.84;5098108;28;20048;-75
2022/09/18 04:56:04;;;;;;;1.70;1.10;;;;;;;20.37;51.12;101546.75;5098195;28;20048;-74
2022/09/18 04:58:30;;;;;;;2.30;0.90;;;;;;;20.36;51.10;101545.91;5107269;28;20452;-75
2022/09/18 05:00:55;;;;;;;3.17;0.90;;;;;;;20.34;50.89;101540.69;5110647;28;20051;-76
2022/09/18 05:03:21;;;;;;;1.70;0.82;;;;;;;20.35;50.97;101541.53;5097998;28;20127;-75
2022/09/18 05:05:47;;;;;;;1.73;0.90;;;;;;;20.36;51.24;101545.91;5081692;28;20055;-75
2022/09/18 05:08:13;;;;;;;2.67;1.00;;;;;;;20.35;51.08;101546.75;5111006;28;20425;-75
2022/09/18 05:10:38;;;;;;;1.15;0.80;;;;;;;20.35;50.95;101552.00;5097367;28;20048;-75
2022/09/18 05:13:04;;;;;;;1.63;0.85;;;;;;;20.35;50.95;101562.44;5081032;28;20122;-75
2022/09/18 05:15:30;;;;;;;1.40;0.65;;;;;;;20.35;51.03;101557.22;5096921;28;20052;-75
2022/09/18 05:18:00;;;;;;;1.90;0.85;;;;;;;20.35;51.03;101559.84;5091778;28;20046;-75
2022/09/18 05:20:26;;;;;;;1.75;0.80;;;;;;;20.35;50.94;101546.75;5096949;28;20052;-75
2022/09/18 05:22:51;;;;;;;1.60;0.80;;;;;;;20.36;51.00;101553.75;5096690;28;20106;-76
2022/09/18 05:25:19;;;;;;;3.33;0.80;;;;;;;20.34;50.98;101558.97;5098369;28;20048;-77
2022/09/18 05:27:52;;;;;;;1.50;0.70;;;;;;;20.34;51.05;101574.66;5081175;28;20054;-75
2022/09/18 05:30:18;;;;;;;1.65;0.82;;;;;;;20.35;51.00;101565.06;5097433;28;20060;-76
2022/09/18 05:32:53;;;;;;;3.65;0.80;;;;;;;20.34;51.04;101556.34;5097632;28;20153;-74
2022/09/18 05:35:19;;;;;;;3.05;0.88;;;;;;;20.34;50.88;101561.59;5080387;28;20398;-75
2022/09/18 05:37:44;;;;;;;2.30;1.00;;;;;;;20.35;50.82;101562.44;5081110;28;20056;-75
2022/09/18 05:40:09;;;;;;;2.20;0.88;;;;;;;20.34;51.03;101558.97;5080239;28;20048;-75
2022/09/18 05:42:35;;;;;;;3.70;0.88;;;;;;;20.35;50.90;101550.22;5079623;28;20048;-75
2022/09/18 05:45:00;;;;;;;4.57;1.00;;;;;;;20.34;51.02;101545.91;5097576;28;20139;-76
2022/09/18 05:47:25;;;;;;;1.13;0.60;;;;;;;20.35;50.97;101542.41;5079518;28;20142;-75
2022/09/18 05:49:51;;;;;;;3.28;0.80;;;;;;;20.34;51.03;101545.91;5078650;28;20139;-74
2022/09/18 05:52:16;;;;;;;2.42;0.70;;;;;;;20.34;50.94;101551.13;5065967;27;20049;-75
2022/09/18 05:54:41;;;;;;;1.83;0.70;;;;;;;20.35;50.97;101549.38;5082430;27;20051;-75
2022/09/18 05:57:07;;;;;;;1.98;0.77;;;;;;;20.35;51.11;101546.75;5096765;28;20048;-78
2022/09/18 05:59:32;;;;;;;1.42;0.80;;;;;;;20.36;51.00;101543.28;5096068;28;20044;-75
2022/09/18 06:01:57;;;;;;;4.28;0.70;;;;;;;20.35;51.07;101531.06;5096584;28;20387;-78
2022/09/18 06:04:23;;;;;;;1.23;0.60;;;;;;;20.35;50.96;101531.94;5096645;28;20565;-78
2022/09/18 06:06:48;;;;;;;1.25;0.68;;;;;;;20.35;51.12;101534.56;5067986;27;20039;-77
2022/09/18 06:09:14;;;;;;;2.92;0.60;;;;;;;20.35;50.87;101531.06;5086754;28;20146;-78
2022/09/18 06:11:39;;;;;;;3.38;0.70;;;;;;;20.35;50.95;101531.06;5082200;27;20078;-77
2022/09/18 06:14:04;;;;;;;1.88;0.70;;;;;;;20.35;51.04;101531.06;5079716;28;20382;-79
2022/09/18 06:16:30;;;;;;;3.88;0.90;;;;;;;20.35;50.98;101531.94;5061803;28;20567;-77
2022/09/18 06:18:55;;;;;;;0.88;0.60;;;;;;;20.35;50.88;101529.31;5079105;28;20478;-77
2022/09/18 06:21:20;;;;;;;1.48;0.70;;;;;;;20.34;50.91;101538.06;5079865;28;20387;-76
2022/09/18 06:23:46;;;;;;;1.48;0.60;;;;;;;20.34;50.73;101535.44;5107056;28;20059;-77
2022/09/18 06:26:12;;;;;;;1.70;0.70;;;;;;;20.35;50.83;101542.41;5062592;28;20380;-77
2022/09/18 06:28:38;;;;;;;1.40;0.70;;;;;;;20.35;50.87;101541.53;5079351;28;20051;-78
2022/09/18 06:31:04;;;;;;;1.25;0.70;;;;;;;20.36;50.97;101540.66;5079258;28;20548;-77
2022/09/18 06:33:30;;;;;;;1.52;0.60;;;;;;;20.37;50.94;101538.91;5078928;28;20048;-78
2022/09/18 06:35:56;;;;;;;1.83;0.70;;;;;;;20.37;50.83;101528.47;5095959;28;20040;-76
2022/09/18 06:38:21;;;;;;;1.35;0.63;;;;;;;20.37;50.91;101531.94;5079643;28;20088;-78
2022/09/18 06:40:51;;;;;;;1.80;0.70;;;;;;;20.38;50.86;101532.78;5097361;28;20056;-77
2022/09/18 06:43:17;;;;;;;1.80;0.60;;;;;;;20.35;50.71;101526.72;5052768;28;1237319;-77
2022/09/18 06:45:42;;;;;;;1.42;0.77;;;;;;;20.35;50.88;101529.31;5079668;28;20050;-78
2022/09/18 06:48:07;;;;;;;1.25;0.65;;;;;;;20.35;50.70;101537.16;5096388;28;20052;-78
2022/09/18 06:50:33;;;;;;;1.65;0.80;;;;;;;20.37;50.78;101536.31;5078340;28;20105;-76
2022/09/18 06:53:03;;;;;;;1.35;0.68;;;;;;;20.35;50.89;101550.22;5079399;28;20055;-77
2022/09/18 06:55:30;;;;;;;1.33;0.60;;;;;;;20.36;50.93;101551.13;5095566;28;20044;-79
2022/09/18 06:57:57;;;;;;;2.08;0.73;;;;;;;20.36;50.74;101553.75;5062188;28;20083;-78
2022/09/18 07:00:22;;;;;;;1.40;0.70;;;;;;;20.37;50.81;101554.59;5096024;28;20071;-78
2022/09/18 07:02:59;;;;;;;3.15;0.80;;;;;;;20.36;50.92;101543.28;5080603;28;20449;-77
2022/09/18 07:05:27;;;;;;;1.63;0.52;;;;;;;20.38;50.78;101556.31;5095580;28;20055;-78
2022/09/18 07:07:52;;;;;;;0.63;0.43;;;;;;;20.37;50.93;101551.97;5094390;28;20082;-76
2022/09/18 07:10:18;;;;;;;1.13;0.60;;;;;;;20.36;50.99;101540.66;5066173;28;20075;-77
2022/09/18 07:12:47;;;;;;;1.92;0.70;;;;;;;20.38;51.10;101553.69;5081831;28;20063;-80
2022/09/18 07:15:16;;;;;;;1.70;0.60;;;;;;;20.30;51.05;101554.66;5084404;28;20048;-79
2022/09/18 07:17:42;;;;;;;1.30;0.57;;;;;;;20.25;50.90;101561.69;5084160;28;20028;-77
2022/09/18 07:20:09;;;;;;;2.13;0.65;;;;;;;20.26;50.95;101557.31;5083011;28;20088;-77
2022/09/18 07:22:35;;;;;;;2.53;0.70;;;;;;;20.28;51.11;101545.97;5099360;28;20044;-77
2022/09/18 07:25:00;;;;;;;6.00;1.60;;;;;;;20.30;50.67;101533.75;5082813;28;20490;-78
2022/09/18 07:27:27;;;;;;;7.40;2.03;;;;;;;20.32;50.89;101536.34;5065120;28;20363;-78
2022/09/18 07:29:52;;;;;;;8.48;2.72;;;;;;;20.34;50.81;101537.22;5098837;28;20105;-82
2022/09/18 07:32:19;;;;;;;11.85;3.80;;;;;;;20.34;50.70;101535.44;5065847;28;20032;-79
2022/09/18 07:34:44;;;;;;;12.50;3.38;;;;;;;20.34;50.68;101535.44;5100251;28;21195;-80
2022/09/18 07:37:09;;;;;;;9.90;3.00;;;;;;;20.35;50.93;101529.31;5082569;28;20497;-80
2022/09/18 07:39:35;;;;;;;9.73;2.80;;;;;;;20.36;50.85;101519.75;5082259;28;20114;-79
2022/09/18 07:42:00;;;;;;;8.35;2.88;;;;;;;20.38;50.83;101536.25;5112837;28;20427;-82
2022/09/18 07:44:26;;;;;;;7.85;2.40;;;;;;;20.37;50.77;101526.69;5065417;28;20064;-81
2022/09/18 07:46:54;;;;;;;6.03;2.60;;;;;;;20.39;50.73;101531.94;5098282;28;20055;-80
2022/09/18 07:49:19;;;;;;;7.25;2.28;;;;;;;20.37;50.78;101526.69;5082294;28;20074;-79
2022/09/18 07:51:45;;;;;;;7.07;2.30;;;;;;;20.39;50.77;101526.69;5082709;28;20091;-80
2022/09/18 07:54:11;;;;;;;7.65;2.58;;;;;;;20.37;50.80;101525.84;5082193;28;20490;-78
2022/09/18 07:56:36;;;;;;;12.02;2.35;;;;;;;20.37;50.92;101525.84;5065690;28;20483;-78
2022/09/18 07:59:02;;;;;;;6.82;2.10;;;;;;;20.36;50.80;101532.81;5099130;28;20036;-79
2022/09/18 08:01:27;;;;;;;5.13;1.92;;;;;;;20.36;51.04;101548.50;5098265;28;20043;-81
2022/09/18 08:03:53;;;;;;;4.97;2.13;;;;;;;20.35;50.86;101531.94;5081627;28;20050;-83
2022/09/18 08:06:18;;;;;;;9.20;2.42;;;;;;;20.37;50.87;101538.91;5116862;27;20076;-76
2022/09/18 08:08:44;;;;;;;6.15;1.90;;;;;;;20.37;50.78;101529.31;5105870;27;20054;-82
2022/09/18 08:11:09;;;;;;;11.60;2.78;;;;;;;20.37;50.96;101536.31;5085892;28;20149;-81
2022/09/18 08:13:35;;;;;;;13.75;3.20;;;;;;;20.37;50.67;101525.84;5083172;27;20046;-81
2022/09/18 08:16:02;;;;;;;11.52;2.83;;;;;;;20.35;50.83;101531.06;5082137;28;20097;-81
2022/09/18 08:18:27;;;;;;;10.98;2.40;;;;;;;20.35;51.18;101534.56;5098090;28;20054;-81
2022/09/18 08:20:56;;;;;;;7.43;2.50;;;;;;;20.35;50.92;101541.53;5080651;28;20056;-81
2022/09/18 08:23:22;;;;;;;10.77;2.63;;;;;;;20.35;51.05;101549.38;5098778;28;20059;-81
2022/09/18 08:25:47;;;;;;;15.02;2.42;;;;;;;20.34;50.93;101538.06;5082812;28;20142;-81
2022/09/18 08:28:13;;;;;;;8.38;2.25;;;;;;;20.34;51.09;101538.06;5081853;28;20044;-81
2022/09/18 08:30:38;;;;;;;10.93;2.47;;;;;;;20.33;50.67;101533.69;5081352;28;20447;-80
2022/09/18 08:33:06;;;;;;;7.57;2.30;;;;;;;20.35;51.04;101536.31;5081903;28;20044;-81
2022/09/18 08:35:32;;;;;;;8.43;2.55;;;;;;;20.34;51.27;101530.22;5097700;28;20063;-82
2022/09/18 08:37:58;;;;;;;7.28;2.80;;;;;;;20.35;50.93;101524.09;5064400;28;20076;-81
2022/09/18 08:42:54;;;;;;;5.85;2.28;;;;;;;20.36;50.87;101527.59;5089467;28;21210;-82
2022/09/18 08:47:55;;;;;;;7.00;2.08;;;;;;;20.36;50.87;101543.28;5109526;27;20757;-80
2022/09/18 08:53:14;;;;;;;8.95;2.10;;;;;;;20.35;50.97;101537.16;5109409;27;20056;-83
2022/09/18 08:55:46;;;;;;;8.00;2.30;;;;;;;20.35;50.93;101547.63;5102488;28;20493;-83
2022/09/18 08:58:17;;;;;;;5.72;2.10;;;;;;;20.37;50.69;101549.38;5081188;28;20521;-77
2022/09/18 09:00:58;;;;;;;6.90;1.88;;;;;;;20.35;51.02;101550.22;5108039;28;20500;-76
2022/09/18 09:03:23;;;;;;;4.25;1.90;;;;;;;20.36;50.39;101566.81;5098047;28;20047;-77
2022/09/18 09:05:58;;;;;;;5.13;1.92;;;;;;;20.34;51.19;101561.59;5103027;27;20054;-77
2022/09/18 09:11:20;;;;;;;5.53;2.05;;;;;;;20.35;51.18;101571.16;5109147;28;21282;-78
2022/09/18 09:13:57;;;;;;;5.38;2.00;;;;;;;20.35;51.10;101563.31;5108709;28;20120;-78
2022/09/18 09:16:25;;;;;;;7.55;2.30;;;;;;;20.37;51.11;101554.59;5097674;28;20051;-79
2022/09/18 09:19:17;;;;;;;6.57;2.20;;;;;;;20.37;51.20;101565.06;5102898;27;20079;-77
2022/09/18 09:21:48;;;;;;;7.20;1.90;;;;;;;20.37;51.24;101573.75;5099461;28;20054;-78
2022/09/18 09:26:53;;;;;;;4.30;2.03;;;;;;;20.37;51.31;101568.53;5108244;28;20048;-78
2022/09/18 09:31:54;;;;;;;5.80;1.83;;;;;;;20.39;51.14;101565.91;5108199;28;20166;-79
2022/09/18 09:36:53;;;;;;;8.00;1.92;;;;;;;20.40;51.21;101551.94;5108071;28;20044;-78
2022/09/18 09:39:25;;;;;;;7.50;2.35;;;;;;;20.41;51.12;101551.06;5097838;28;20494;-79
2022/09/18 09:42:10;;;;;;;4.95;1.70;;;;;;;20.41;51.26;101549.31;5108522;28;20171;-80
2022/09/18 09:44:51;;;;;;;7.63;1.92;;;;;;;20.42;51.17;101551.03;5097991;28;20044;-78
2022/09/18 09:50:07;;;;;;;3.88;2.00;;;;;;;20.44;51.11;101551.03;5106869;28;20485;-78
2022/09/18 09:52:35;;;;;;;6.10;2.00;;;;;;;20.43;51.14;101547.56;5095650;28;20043;-78
2022/09/18 09:58:20;;;;;;;4.60;2.00;;;;;;;20.42;51.12;101576.31;5107928;28;20119;-77
2022/09/18 10:00:57;;;;;;;5.35;1.77;;;;;;;20.40;51.25;101578.09;5108086;28;20071;-76
2022/09/18 10:06:17;;;;;;;4.03;1.60;;;;;;;20.40;50.94;101568.47;5098802;28;20048;-76
2022/09/18 10:08:46;;;;;;;;;;;;;;;20.42;51.22;101571.09;5100818;27;20126;-78
2022/09/18 10:11:14;;;;;;;6.55;2.38;;;;;;;20.43;51.35;101565.00;5105321;28;20257;-77
2022/09/18 10:13:50;;;;;;;9.65;3.70;;;;;;;20.42;51.27;101565.88;5082741;27;20036;-77
2022/09/18 10:18:49;;;;;;;8.68;4.80;;;;;;;20.41;51.19;101564.16;5128440;27;20134;-77
2022/09/18 10:21:17;;;;;;;7.75;4.72;;;;;;;20.41;51.21;101562.41;5104481;28;20515;-76
2022/09/18 10:23:47;;;;;;;9.60;5.07;;;;;;;20.40;51.27;101568.47;5100465;27;20036;-76
2022/09/18 10:26:20;;;;;;;9.48;4.95;;;;;;;20.41;51.31;101574.59;5130249;27;20409;-76
2022/09/18 10:28:45;;;;;;;7.53;4.75;;;;;;;20.41;51.47;101570.22;5109690;28;20083;-77
2022/09/18 10:31:12;;;;;;;7.97;4.82;;;;;;;20.41;51.26;101561.53;5078159;28;20078;-75
2022/09/18 10:33:39;;;;;;;9.90;4.95;;;;;;;20.41;51.45;101564.16;5084038;27;20039;-76
2022/09/18 10:38:49;;;;;;;7.35;4.60;;;;;;;20.47;51.52;101553.59;5119048;27;20809;-78
2022/09/18 10:43:56;;;;;;;10.27;5.43;;;;;;;20.53;51.70;101549.22;5116943;27;20060;-87
2022/09/18 10:48:50;;;;;;;11.93;6.35;;;;;;;20.58;53.01;101557.03;5103680;28;20052;-84
2022/09/18 10:51:19;;;;;;;10.63;6.25;;;;;;;20.52;52.57;101557.91;5096953;28;20541;-78
2022/09/18 10:53:58;;;;;;;7.50;5.53;;;;;;;20.45;52.86;101548.41;5120451;27;20196;-86
2022/09/18 10:56:23;;;;;;;10.07;6.55;;;;;;;20.42;53.26;101542.34;5111416;28;20106;-86
2022/09/18 10:58:49;;;;;;;9.30;5.85;;;;;;;20.40;53.44;101542.34;5049077;27;1166865;-83
2022/09/18 11:01:14;;;;;;;11.57;6.30;;;;;;;20.39;53.83;101538.00;5107924;27;20042;-83
2022/09/18 11:03:45;;;;;;;10.15;6.32;;;;;;;20.39;53.42;101540.63;5088032;27;20079;-83
2022/09/18 11:06:23;;;;;;;10.68;6.47;;;;;;;20.38;53.93;101532.78;5108973;28;20040;-83
2022/09/18 11:08:53;;;;;;;11.10;7.05;;;;;;;20.38;53.89;101532.78;5105086;27;20103;-83
2022/09/18 11:11:22;;;;;;;13.07;6.40;;;;;;;20.37;53.91;101544.16;5115086;27;20039;-79
2022/09/18 11:13:57;;;;;;;9.50;6.43;;;;;;;20.34;54.11;101538.06;5131694;27;20073;-80
2022/09/18 11:19:02;;;;;;;10.73;7.07;;;;;;;20.32;54.09;101545.06;5131547;27;20132;-80
2022/09/18 11:21:27;;;;;;;9.27;7.15;;;;;;;20.31;54.49;101540.69;5105357;27;20036;-78
2022/09/18 11:24:15;;;;;;;12.57;7.32;;;;;;;20.31;54.19;101548.53;5109636;28;20108;-79
2022/09/18 11:26:48;;;;;;;12.80;7.07;;;;;;;20.31;54.04;101551.13;5105063;27;20101;-79
2022/09/18 11:32:18;;;;;;;8.52;6.38;;;;;;;20.27;53.72;101552.09;5131491;27;20053;-80
2022/09/18 11:34:50;;;;;;;11.68;7.10;;;;;;;20.26;53.92;101547.72;5104065;27;20048;-79
2022/09/18 11:37:25;;;;;;;9.52;6.85;;;;;;;20.27;53.98;101546.84;5108550;28;20375;-79
2022/09/18 11:39:58;;;;;;;10.65;6.65;;;;;;;20.27;53.85;101549.47;5110997;28;20047;-78
2022/09/18 11:42:24;;;;;;;9.63;6.72;;;;;;;20.28;53.95;101552.94;5103882;28;20127;-81
2022/09/18 11:44:50;;;;;;;10.77;6.43;;;;;;;20.31;53.71;101547.66;5101117;28;20126;-80
2022/09/18 11:49:53;;;;;;;11.50;6.60;;;;;;;20.29;53.56;101550.28;5123138;27;20108;-86
2022/09/18 11:55:15;;;;;;;9.57;6.93;;;;;;;20.24;53.49;101570.38;5120021;27;20102;-85
2022/09/18 11:57:46;;;;;;;9.23;6.53;;;;;;;20.25;53.31;101574.75;5113406;27;20524;-84
2022/09/18 12:00:21;;;;;;;10.82;7.20;;;;;;;20.24;53.26;101577.38;5114323;27;20054;-86
2022/09/18 12:03:19;;;;;;;9.02;6.43;;;;;;;20.23;53.13;101583.47;5104995;27;21158;-82
2022/09/18 12:05:55;;;;;;;7.90;6.20;;;;;;;20.23;53.22;101593.91;5106511;27;20054;-85
2022/09/18 12:11:02;;;;;;;9.30;6.72;;;;;;;20.23;53.08;101581.72;5136287;27;20047;-85
2022/09/18 12:14:05;;;;;;;10.13;6.55;;;;;;;20.23;53.17;101581.72;5107839;28;20043;-84
2022/09/18 12:16:42;;;;;;;11.75;7.00;;;;;;;20.24;53.15;101579.97;5113756;28;20101;-85
2022/09/18 12:19:16;;;;;;;10.63;7.28;;;;;;;20.23;53.23;101575.63;5115204;28;20028;-84
2022/09/18 12:21:41;;;;;;;9.77;7.10;;;;;;;20.23;53.25;101576.50;5105655;27;20093;-84
2022/09/18 12:24:13;;;;;;;10.85;7.05;;;;;;;20.24;53.04;101575.63;5108572;28;20051;-84
2022/09/18 12:26:58;;;;;;;12.35;7.28;;;;;;;20.25;53.17;101579.09;5102768;27;20489;-76
2022/09/18 12:32:06;;;;;;;11.18;7.07;;;;;;;20.26;53.18;101563.41;5131038;27;20607;-80
2022/09/18 12:34:50;;;;;;;11.90;7.80;;;;;;;20.26;53.20;101566.00;5111890;27;20138;-79
2022/09/18 12:39:55;;;;;;;9.70;7.13;;;;;;;20.24;53.06;101557.31;5130233;27;20043;-79
2022/09/18 12:42:25;;;;;;;10.75;7.53;;;;;;;20.25;53.29;101564.28;5105795;28;20126;-79
2022/09/18 12:48:19;;;;;;;8.82;7.22;;;;;;;20.26;53.15;101566.00;5121665;27;20069;-80
2022/09/18 12:51:16;;;;;;;9.55;7.45;;;;;;;20.26;53.19;101566.00;5103087;27;22611;-81
2022/09/18 12:53:48;;;;;;;11.68;7.43;;;;;;;20.26;53.07;101560.78;5097943;27;20047;-78
2022/09/18 12:58:52;;;;;;;12.98;7.88;;;;;;;20.25;53.13;101566.91;5121567;27;20062;-78
2022/09/18 13:03:52;;;;;;;10.23;7.75;;;;;;;20.26;53.12;101566.00;5109290;28;20662;-78